Time;durP1;ratioP1;P1;durP2;ratioP2;P2;SDS_P1;SDS_P2;PMS_P1;PMS_P2;Temp;Humidity;BMP_temperature;BMP_pressure;BME280_temperature;BME280_humidity;BME280_pressure;Samples;Min_cycle;Max_cycle;Signal;HPM_P1;HPM_P2
2022/03/18 00:01:50;;;;;;;6.78;2.05;;;;;;;1.74;40.34;103691.31;5092897;28;20131;-89
2022/03/18 00:04:16;;;;;;;6.43;2.22;;;;;;;1.74;40.01;103688.63;5093936;28;20075;-90
2022/03/18 00:06:41;;;;;;;5.68;2.50;;;;;;;1.68;40.03;103696.47;5093909;28;20533;-88
2022/03/18 00:09:07;;;;;;;3.50;2.33;;;;;;;1.59;39.88;103686.53;5093368;28;20035;-88
2022/03/18 00:11:33;;;;;;;4.13;2.15;;;;;;;1.57;40.52;103699.38;5097795;28;20036;-90
2022/03/18 00:14:02;;;;;;;11.40;2.97;;;;;;;1.52;40.47;103689.81;5107110;28;20044;-88
2022/03/18 00:16:28;;;;;;;4.65;2.40;;;;;;;1.41;39.69;103692.69;5077770;28;20032;-89
2022/03/18 00:18:54;;;;;;;4.60;2.30;;;;;;;1.32;40.40;103690.84;5076657;28;20038;-88
2022/03/18 00:21:21;;;;;;;4.53;2.30;;;;;;;1.34;40.09;103688.84;5073914;28;20449;-90
2022/03/18 00:23:47;;;;;;;4.95;2.08;;;;;;;1.31;40.31;103693.72;5107633;28;20036;-89
2022/03/18 00:26:13;;;;;;;2.42;1.80;;;;;;;1.35;40.75;103690.56;5078907;28;20050;-88
2022/03/18 00:28:39;;;;;;;5.60;2.20;;;;;;;1.32;40.28;103688.16;5101899;28;20053;-89
2022/03/18 00:31:08;;;;;;;5.03;2.35;;;;;;;1.34;40.21;103694.25;5111027;28;20044;-87
2022/03/18 00:33:34;;;;;;;6.18;2.08;;;;;;;1.30;40.78;103698.25;5103163;27;20401;-88
2022/03/18 00:36:01;;;;;;;3.85;2.42;;;;;;;1.26;41.04;103694.16;5105880;28;20583;-88
2022/03/18 00:38:27;;;;;;;5.38;2.10;;;;;;;1.31;40.74;103699.97;5094385;28;20394;-89
2022/03/18 00:40:56;;;;;;;7.20;2.28;;;;;;;1.26;40.82;103699.56;5094302;28;20035;-90
2022/03/18 00:43:22;;;;;;;5.60;2.70;;;;;;;1.29;40.53;103701.13;5114352;28;20059;-90
2022/03/18 00:45:48;;;;;;;8.05;2.42;;;;;;;1.24;40.96;103692.59;5095507;28;20089;-90
2022/03/18 00:53:43;;;;;;;3.35;1.95;;;;;;;1.24;40.53;103698.84;5097772;28;20043;-91
2022/03/18 00:56:08;;;;;;;4.57;2.00;;;;;;;1.20;41.04;103698.25;5094840;28;20092;-90
2022/03/18 00:58:34;;;;;;;6.68;2.15;;;;;;;1.19;41.03;103695.72;5094823;28;20409;-89
2022/03/18 01:00:59;;;;;;;8.13;2.00;;;;;;;1.19;41.10;103699.25;5107614;28;20036;-90
2022/03/18 01:03:25;;;;;;;7.75;1.90;;;;;;;1.15;40.92;103703.25;5079430;28;20047;-88
2022/03/18 01:05:51;;;;;;;5.18;1.90;;;;;;;1.18;41.09;103694.00;5111205;28;20050;-88
2022/03/18 01:08:16;;;;;;;2.88;1.70;;;;;;;1.20;41.44;103698.25;5112126;28;20035;-90
2022/03/18 01:10:42;;;;;;;2.50;1.63;;;;;;;1.16;40.79;103702.25;5117343;28;20039;-89
2022/03/18 01:13:08;;;;;;;4.82;1.73;;;;;;;1.10;40.73;103702.00;5112527;28;20693;-89
2022/03/18 01:15:33;;;;;;;4.95;1.92;;;;;;;1.13;41.38;103704.41;5111192;28;20043;-90
2022/03/18 01:17:59;;;;;;;4.07;1.75;;;;;;;1.15;41.09;103697.84;5112451;28;20039;-88
2022/03/18 01:20:25;;;;;;;2.25;1.60;;;;;;;1.15;41.19;103694.28;5095048;28;20039;-90
2022/03/18 01:22:51;;;;;;;3.53;1.45;;;;;;;1.16;41.02;103694.16;5082273;28;20185;-87
2022/03/18 01:25:17;;;;;;;8.13;2.00;;;;;;;1.18;41.00;103694.84;5071221;28;20139;-86
2022/03/18 01:27:42;;;;;;;6.57;2.03;;;;;;;1.16;41.17;103688.75;5053544;28;20036;-86
2022/03/18 01:30:09;;;;;;;4.00;1.77;;;;;;;1.11;41.03;103701.00;5072230;28;20040;-86
2022/03/18 01:32:34;;;;;;;7.00;2.10;;;;;;;1.07;41.07;103695.03;5078011;28;20532;-89
2022/03/18 01:35:00;;;;;;;5.47;1.75;;;;;;;1.09;41.13;103700.28;5091914;28;20039;-89
2022/03/18 01:37:26;;;;;;;10.48;1.60;;;;;;;1.07;41.26;103700.44;5068686;28;20097;-90
2022/03/18 01:39:52;;;;;;;4.10;2.10;;;;;;;1.05;41.19;103698.88;5080796;28;20085;-90
2022/03/18 01:42:18;;;;;;;6.80;1.88;;;;;;;1.03;41.00;103693.59;5092206;28;20055;-89
2022/03/18 01:44:46;;;;;;;7.80;1.70;;;;;;;1.02;40.94;103696.44;5117865;28;20044;-90
2022/03/18 01:47:12;;;;;;;2.63;1.50;;;;;;;1.00;41.19;103693.88;5111777;28;20052;-90
2022/03/18 01:49:38;;;;;;;3.05;1.42;;;;;;;0.96;41.35;103687.06;5091050;28;20047;-89
2022/03/18 01:52:08;;;;;;;4.53;1.65;;;;;;;0.93;41.72;103694.59;5087071;28;20559;-86
2022/03/18 01:54:50;;;;;;;6.57;1.70;;;;;;;0.93;41.68;103694.59;5085261;28;20096;-87
2022/03/18 01:57:24;;;;;;;3.60;1.63;;;;;;;0.95;41.84;103706.13;5082375;28;20037;-88
2022/03/18 01:59:51;;;;;;;2.22;1.52;;;;;;;0.94;41.45;103701.72;5080245;28;20032;-87
2022/03/18 02:02:17;;;;;;;5.82;1.50;;;;;;;0.90;41.85;103696.59;5076078;28;20118;-88
2022/03/18 02:04:43;;;;;;;4.97;2.05;;;;;;;0.92;42.00;103701.00;5073583;28;20051;-85
2022/03/18 02:07:09;;;;;;;14.55;2.55;;;;;;;0.90;41.71;103699.31;5075080;28;20114;-85
2022/03/18 02:09:36;;;;;;;4.07;2.17;;;;;;;0.90;41.59;103693.91;5085775;28;20563;-86
2022/03/18 02:12:03;;;;;;;5.38;1.65;;;;;;;0.89;42.27;103697.59;5094140;28;20032;-85
2022/03/18 02:14:49;;;;;;;3.25;1.70;;;;;;;0.88;41.55;103693.19;5095092;28;20064;-87
2022/03/18 02:17:16;;;;;;;11.07;2.35;;;;;;;0.84;41.76;103697.16;5091140;28;20052;-87
2022/03/18 02:19:43;;;;;;;8.02;2.08;;;;;;;0.84;42.46;103702.56;5073611;28;20094;-86
2022/03/18 02:22:18;;;;;;;12.88;1.85;;;;;;;0.81;42.12;103694.72;5081482;28;20058;-87
2022/03/18 02:24:46;;;;;;;6.20;1.98;;;;;;;0.80;42.40;103690.31;5102132;28;20059;-88
2022/03/18 02:27:12;;;;;;;4.22;1.58;;;;;;;0.83;42.49;103694.59;5110960;27;20042;-88
2022/03/18 02:29:38;;;;;;;3.05;1.67;;;;;;;0.82;42.19;103691.03;5132174;27;20062;-88
2022/03/18 02:32:05;;;;;;;9.82;2.55;;;;;;;0.80;42.64;103693.03;5115986;28;20172;-89
2022/03/18 02:34:32;;;;;;;4.93;1.58;;;;;;;0.78;42.14;103684.22;5106509;27;20046;-89
2022/03/18 02:36:57;;;;;;;5.82;2.38;;;;;;;0.74;42.41;103687.34;5136340;27;20113;-88
2022/03/18 02:39:23;;;;;;;6.30;2.05;;;;;;;0.71;42.65;103684.94;5108861;28;20031;-88
2022/03/18 02:41:49;;;;;;;2.83;1.80;;;;;;;0.71;42.66;103679.53;5100284;28;20032;-90
2022/03/18 02:44:15;;;;;;;6.53;1.95;;;;;;;0.66;43.38;103687.19;5117405;28;20043;-88
2022/03/18 02:46:40;;;;;;;8.07;2.75;;;;;;;0.65;42.84;103686.31;5110310;28;20040;-87
2022/03/18 02:49:07;;;;;;;3.78;1.95;;;;;;;0.66;43.17;103685.31;5100263;28;20036;-87
2022/03/18 02:51:36;;;;;;;11.55;2.38;;;;;;;0.65;43.15;103683.63;5096250;28;20089;-86
2022/03/18 02:54:02;;;;;;;8.35;2.53;;;;;;;0.63;42.91;103682.91;5064689;28;20466;-90
2022/03/18 02:56:27;;;;;;;7.05;2.40;;;;;;;0.62;43.41;103683.91;5098869;28;20028;-90
2022/03/18 02:58:53;;;;;;;9.35;2.30;;;;;;;0.66;43.35;103679.06;5090253;28;20397;-89
2022/03/18 03:01:19;;;;;;;9.43;2.10;;;;;;;0.63;43.59;103690.16;5112976;28;20047;-90
2022/03/18 03:03:44;;;;;;;7.93;1.92;;;;;;;0.63;43.47;103682.91;5078736;28;20036;-89
2022/03/18 03:08:54;;;;;;;5.50;1.95;;;;;;;0.57;43.38;103676.25;5093880;28;20571;-90
2022/03/18 03:11:22;;;;;;;6.00;1.73;;;;;;;0.56;43.91;103681.78;5076579;28;20047;-88
2022/03/18 03:13:51;;;;;;;8.35;2.42;;;;;;;0.53;43.84;103687.47;5098972;28;20058;-90
2022/03/18 03:16:19;;;;;;;13.77;4.15;;;;;;;0.53;43.52;103679.38;5096050;28;20084;-90
2022/03/18 03:18:46;;;;;;;10.35;3.78;;;;;;;0.51;43.70;103673.22;5096579;28;20043;-89
2022/03/18 03:21:12;;;;;;;15.82;3.35;;;;;;;0.51;43.80;103673.22;5084659;28;20060;-88
2022/03/18 03:23:38;;;;;;;9.63;3.08;;;;;;;0.52;43.58;103672.22;5093168;28;20480;-88
2022/03/18 03:26:04;;;;;;;14.13;3.42;;;;;;;0.51;43.92;103675.94;5093720;28;20494;-87
2022/03/18 03:28:29;;;;;;;12.60;2.80;;;;;;;0.48;43.50;103668.97;5093447;28;20253;-87
2022/03/18 03:30:55;;;;;;;8.05;2.40;;;;;;;0.47;43.59;103677.22;5076010;28;20036;-88
2022/03/18 03:33:21;;;;;;;10.43;2.60;;;;;;;0.49;43.87;103667.13;5101175;27;20683;-87
2022/03/18 03:35:46;;;;;;;10.27;3.13;;;;;;;0.47;43.96;103666.41;5121793;27;20039;-89
2022/03/18 03:38:15;;;;;;;5.38;2.80;;;;;;;0.49;43.97;103669.81;5095603;28;20096;-88
2022/03/18 03:40:43;;;;;;;10.67;3.87;;;;;;;0.50;44.56;103669.66;5095637;28;20036;-88
2022/03/18 03:43:09;;;;;;;10.85;3.30;;;;;;;0.55;44.67;103669.28;5114105;28;20494;-87
2022/03/18 03:45:36;;;;;;;11.15;3.42;;;;;;;0.51;44.20;103670.53;5103327;28;20499;-87
2022/03/18 03:48:02;;;;;;;10.43;3.20;;;;;;;0.50;44.46;103671.53;5096828;28;20121;-88
2022/03/18 03:50:28;;;;;;;7.75;3.10;;;;;;;0.46;44.66;103670.09;5096870;28;20032;-87
2022/03/18 03:52:54;;;;;;;9.25;3.42;;;;;;;0.48;44.78;103681.63;5092382;28;20419;-89
2022/03/18 03:55:20;;;;;;;14.15;4.70;;;;;;;0.47;45.18;103669.09;5074355;28;20051;-88
2022/03/18 03:57:46;;;;;;;13.70;3.78;;;;;;;0.42;44.93;103682.19;5105235;27;20039;-87
2022/03/18 04:00:12;;;;;;;12.55;3.95;;;;;;;0.45;45.44;103679.19;5097124;28;20032;-87
2022/03/18 04:02:38;;;;;;;16.90;4.00;;;;;;;0.42;45.63;103680.34;5057929;28;20032;-87
2022/03/18 04:05:07;;;;;;;15.48;3.72;;;;;;;0.44;45.74;103683.75;5086737;28;20058;-88
2022/03/18 04:07:37;;;;;;;12.52;3.60;;;;;;;0.50;45.77;103676.91;5104569;28;20565;-89
2022/03/18 04:10:04;;;;;;;13.30;3.78;;;;;;;0.56;46.04;103677.22;5105047;28;20032;-90
2022/03/18 04:12:29;;;;;;;12.77;4.05;;;;;;;0.64;45.80;103683.78;5107002;28;20031;-90
2022/03/18 04:14:55;;;;;;;17.35;4.50;;;;;;;0.65;45.72;103686.31;5084524;28;20044;-90
2022/03/18 04:17:22;;;;;;;20.67;4.80;;;;;;;0.59;45.59;103682.34;5077707;28;20194;-90
2022/03/18 04:19:48;;;;;;;18.65;5.50;;;;;;;0.56;45.65;103681.78;5090141;28;20130;-87
2022/03/18 04:22:13;;;;;;;24.60;5.63;;;;;;;0.55;45.79;103694.44;5093353;28;20040;-85
2022/03/18 04:24:39;;;;;;;15.07;4.80;;;;;;;0.56;46.27;103682.63;5095019;28;20040;-88
2022/03/18 04:27:06;;;;;;;22.55;5.38;;;;;;;0.74;45.78;103695.44;5090933;28;20100;-87
2022/03/18 04:29:32;;;;;;;13.57;4.28;;;;;;;0.93;45.82;103697.31;5102354;28;20040;-88
2022/03/18 04:31:58;;;;;;;18.15;4.95;;;;;;;1.27;45.82;103693.16;5098782;28;20043;-88
2022/03/18 04:34:24;;;;;;;20.50;5.68;;;;;;;1.69;44.99;103692.75;5114760;28;20093;-88
2022/03/18 04:36:50;;;;;;;21.75;5.45;;;;;;;2.08;44.19;103696.16;5091211;28;20066;-89
2022/03/18 04:39:15;;;;;;;16.20;4.57;;;;;;;2.43;43.32;103687.28;5092987;28;20039;-88
2022/03/18 04:41:41;;;;;;;24.02;5.20;;;;;;;2.73;43.06;103695.03;5094900;28;20074;-88
2022/03/18 04:44:07;;;;;;;16.30;4.47;;;;;;;3.10;42.19;103691.28;5099620;28;20413;-87
2022/03/18 04:46:32;;;;;;;16.73;4.43;;;;;;;3.46;41.05;103689.34;5113693;28;20084;-90
2022/03/18 04:48:59;;;;;;;15.85;4.70;;;;;;;3.79;40.75;103684.97;5096271;28;20039;-89
2022/03/18 04:51:25;;;;;;;14.88;4.93;;;;;;;4.11;39.53;103686.16;5094568;28;20036;-92
2022/03/18 04:53:51;;;;;;;15.18;4.22;;;;;;;4.45;38.90;103689.66;5094262;28;20150;-93
2022/03/18 04:59:00;;;;;;;10.30;3.70;;;;;;;5.05;37.35;103684.00;5101313;28;20091;-91
2022/03/18 05:01:26;;;;;;;8.82;4.18;;;;;;;5.39;36.92;103683.81;5084924;28;20451;-91
2022/03/18 05:03:52;;;;;;;11.05;4.63;;;;;;;5.66;36.32;103681.69;5112668;28;20055;-92
2022/03/18 05:06:18;;;;;;;12.18;3.83;;;;;;;5.94;36.00;103687.63;5080894;28;20040;-93
2022/03/18 05:08:44;;;;;;;7.85;4.32;;;;;;;6.28;35.78;103687.31;5112373;28;20482;-89
2022/03/18 05:11:12;;;;;;;9.20;3.47;;;;;;;6.60;34.63;103689.84;5087032;28;20071;-86
2022/03/18 05:13:38;;;;;;;12.27;3.92;;;;;;;6.86;34.46;103692.22;5111371;28;20115;-84
2022/03/18 05:16:05;;;;;;;12.93;3.72;;;;;;;7.12;33.53;103693.75;5103078;28;20122;-88
2022/03/18 05:18:31;;;;;;;14.55;3.70;;;;;;;7.38;33.14;103693.34;5105309;28;20147;-88
2022/03/18 05:20:57;;;;;;;10.85;3.60;;;;;;;7.62;33.26;103694.97;5085403;28;20071;-89
2022/03/18 05:23:23;;;;;;;11.70;3.58;;;;;;;7.84;32.99;103696.78;5116840;28;20529;-87
2022/03/18 05:25:48;;;;;;;13.00;3.78;;;;;;;8.06;31.96;103700.47;5089689;28;20044;-89
2022/03/18 05:28:17;;;;;;;10.63;3.55;;;;;;;8.30;31.83;103707.50;5116379;28;20040;-87
2022/03/18 05:30:44;;;;;;;10.67;3.40;;;;;;;8.44;31.02;103712.13;5092559;28;20038;-88
2022/03/18 05:33:09;;;;;;;12.23;3.70;;;;;;;8.58;30.71;103702.19;5114134;28;20036;-88
2022/03/18 05:35:35;;;;;;;9.45;3.70;;;;;;;8.74;30.66;103699.22;5080269;28;20524;-87
2022/03/18 05:38:01;;;;;;;12.23;4.05;;;;;;;8.89;30.34;103697.28;5095618;28;20063;-87
2022/03/18 05:40:26;;;;;;;6.47;3.35;;;;;;;9.12;29.45;103699.81;5083365;28;20047;-88
2022/03/18 05:42:52;;;;;;;12.40;3.20;;;;;;;9.34;29.40;103706.13;5097292;28;20441;-88
2022/03/18 05:45:18;;;;;;;6.78;2.95;;;;;;;9.56;28.59;103702.31;5092222;28;20502;-88
2022/03/18 05:47:44;;;;;;;6.65;3.10;;;;;;;9.77;29.08;103695.91;5098369;28;20466;-80
2022/03/18 05:50:15;;;;;;;10.10;2.92;;;;;;;9.96;28.44;103695.19;5112089;28;20039;-91
2022/03/18 05:52:41;;;;;;;13.25;3.45;;;;;;;10.18;28.01;103703.31;5114023;28;20074;-89
2022/03/18 05:55:07;;;;;;;13.32;4.30;;;;;;;10.32;28.19;103699.59;5106009;28;20521;-90
2022/03/18 05:57:32;;;;;;;11.10;3.55;;;;;;;10.47;28.35;103704.94;5096856;28;20040;-91
2022/03/18 05:59:58;;;;;;;7.40;3.22;;;;;;;10.60;27.56;103701.41;5116193;28;20100;-91
2022/03/18 06:02:25;;;;;;;10.13;3.47;;;;;;;10.79;27.13;103697.88;5097628;28;20040;-90
2022/03/18 06:04:51;;;;;;;11.00;2.90;;;;;;;10.92;27.23;103703.38;5096137;28;20089;-91
2022/03/18 06:07:17;;;;;;;10.45;3.28;;;;;;;11.07;26.32;103695.78;5115323;28;20043;-91
2022/03/18 06:12:26;;;;;;;8.32;3.00;;;;;;;11.22;26.40;103697.47;5115483;28;20044;-92
2022/03/18 06:14:52;;;;;;;9.75;3.30;;;;;;;11.36;26.05;103701.94;5115109;28;20470;-90
2022/03/18 06:17:17;;;;;;;9.30;3.13;;;;;;;11.51;26.60;103697.06;5098081;28;20046;-93
2022/03/18 06:19:43;;;;;;;12.63;3.67;;;;;;;11.62;26.39;103692.81;5115221;28;20088;-92
2022/03/18 06:22:09;;;;;;;12.45;4.25;;;;;;;11.80;25.66;103689.41;5115401;28;20051;-94
2022/03/18 06:24:35;;;;;;;11.25;3.83;;;;;;;11.95;25.81;103693.63;5115141;28;20490;-90
2022/03/18 06:27:01;;;;;;;10.80;3.75;;;;;;;12.13;25.12;103695.69;5115096;28;20043;-90
2022/03/18 06:29:28;;;;;;;9.63;3.70;;;;;;;12.32;25.20;103694.78;5115265;28;20169;-94
2022/03/18 06:31:56;;;;;;;10.18;3.60;;;;;;;12.52;25.83;103693.84;5114868;28;20035;-92
2022/03/18 06:34:22;;;;;;;10.73;3.58;;;;;;;12.66;24.45;103700.94;5105520;28;20122;-90
2022/03/18 06:36:49;;;;;;;8.73;3.60;;;;;;;12.82;25.15;103697.69;5096197;28;20449;-92
2022/03/18 06:39:15;;;;;;;14.63;3.33;;;;;;;12.91;24.66;103696.34;5095474;28;20043;-92
2022/03/18 06:41:40;;;;;;;10.95;3.35;;;;;;;13.05;24.00;103696.28;5077064;28;20044;-95
2022/03/18 06:44:09;;;;;;;9.48;3.47;;;;;;;13.17;23.79;103699.97;5094805;28;20040;-93
2022/03/18 06:46:36;;;;;;;9.32;3.00;;;;;;;13.30;23.87;103697.16;5060913;28;20169;-94
2022/03/18 06:49:02;;;;;;;7.93;3.28;;;;;;;13.40;23.67;103691.16;5096843;28;20043;-95
2022/03/18 06:51:28;;;;;;;5.57;3.15;;;;;;;13.49;23.63;103698.88;5097924;28;20039;-94
2022/03/18 06:53:54;;;;;;;14.25;4.15;;;;;;;13.53;24.25;103696.50;5101809;28;20481;-95
2022/03/18 06:56:20;;;;;;;13.70;3.80;;;;;;;13.63;23.65;103693.25;5084266;28;20047;-94
2022/03/18 06:58:46;;;;;;;11.68;3.13;;;;;;;13.75;23.55;103692.28;5097937;28;20035;-95
2022/03/18 07:01:11;;;;;;;12.43;3.80;;;;;;;13.94;23.31;103693.16;5096594;28;20084;-94
2022/03/18 07:03:37;;;;;;;8.15;4.03;;;;;;;14.15;23.46;103694.59;5113581;28;20082;-91
2022/03/18 07:06:03;;;;;;;10.23;3.60;;;;;;;14.40;23.48;103694.47;5120912;28;20044;-93
2022/03/18 07:08:28;;;;;;;10.60;3.20;;;;;;;14.65;23.43;103686.13;5122601;28;20378;-91
2022/03/18 07:10:54;;;;;;;8.85;3.13;;;;;;;14.85;22.00;103691.34;5114496;28;20043;-92
2022/03/18 07:13:20;;;;;;;7.30;3.17;;;;;;;15.17;22.09;103690.00;5114758;28;20127;-94
2022/03/18 07:15:45;;;;;;;7.03;2.90;;;;;;;15.52;21.75;103690.03;5097824;28;20040;-90
2022/03/18 07:18:11;;;;;;;8.98;3.10;;;;;;;15.67;22.05;103692.34;5096455;28;20070;-91
2022/03/18 07:20:38;;;;;;;8.05;2.92;;;;;;;15.80;22.11;103694.88;5094371;28;20043;-92
2022/03/18 07:23:09;;;;;;;10.07;2.80;;;;;;;15.94;21.18;103699.06;5075585;28;20040;-92
2022/03/18 07:25:36;;;;;;;7.45;2.67;;;;;;;16.20;21.04;103697.69;5092944;28;20836;-91
2022/03/18 07:28:04;;;;;;;10.13;2.92;;;;;;;16.37;20.46;103695.00;5093416;28;20482;-92
2022/03/18 07:30:29;;;;;;;7.78;2.85;;;;;;;16.48;20.79;103696.88;5094283;28;20031;-93
2022/03/18 07:32:55;;;;;;;6.88;2.85;;;;;;;16.58;20.76;103694.31;5096568;28;20036;-91
2022/03/18 07:35:21;;;;;;;7.72;2.90;;;;;;;16.73;19.71;103692.97;5093146;28;20047;-92
2022/03/18 07:37:48;;;;;;;10.95;3.58;;;;;;;16.91;20.48;103691.91;5058166;28;20081;-90
2022/03/18 07:40:15;;;;;;;10.32;2.88;;;;;;;17.09;19.98;103688.91;5074844;28;20078;-93
2022/03/18 07:42:46;;;;;;;16.42;3.05;;;;;;;17.30;19.98;103695.63;5092844;28;20032;-90
2022/03/18 07:45:16;;;;;;;8.93;3.15;;;;;;;17.43;19.80;103690.59;5074814;28;20081;-91
2022/03/18 07:47:42;;;;;;;5.90;2.78;;;;;;;17.58;19.62;103692.78;5096249;28;20396;-93
2022/03/18 07:50:08;;;;;;;15.00;3.60;;;;;;;17.67;19.67;103688.44;5076055;28;20050;-90
2022/03/18 07:52:34;;;;;;;7.85;3.40;;;;;;;17.81;19.44;103690.91;5094659;28;20047;-91
2022/03/18 07:55:00;;;;;;;11.93;3.05;;;;;;;17.98;19.53;103684.22;5098065;28;20118;-91
2022/03/18 07:57:26;;;;;;;14.13;4.38;;;;;;;18.11;19.35;103680.22;5097236;28;20198;-92
2022/03/18 07:59:51;;;;;;;8.73;3.10;;;;;;;18.33;18.79;103688.53;5076631;28;20040;-92
2022/03/18 08:02:17;;;;;;;9.30;3.50;;;;;;;18.44;18.86;103683.97;5094475;28;20036;-92
2022/03/18 08:04:43;;;;;;;11.77;2.90;;;;;;;18.66;18.39;103687.56;5080397;28;20082;-92
2022/03/18 08:07:08;;;;;;;12.75;3.13;;;;;;;18.87;18.64;103685.81;5081935;28;20494;-93
2022/03/18 08:09:34;;;;;;;9.00;2.90;;;;;;;18.92;18.41;103685.91;5097299;28;20088;-93
2022/03/18 08:12:00;;;;;;;7.68;2.92;;;;;;;18.89;18.47;103687.25;5094674;28;20044;-92
2022/03/18 08:14:25;;;;;;;7.75;3.40;;;;;;;19.13;18.27;103684.13;5074626;28;20039;-93
2022/03/18 08:16:51;;;;;;;10.43;3.67;;;;;;;19.53;18.05;103686.38;5109695;28;20126;-93
2022/03/18 08:19:17;;;;;;;10.30;2.95;;;;;;;19.85;17.86;103680.78;5095883;28;20043;-96
2022/03/18 08:21:42;;;;;;;8.40;3.40;;;;;;;20.04;17.48;103679.19;5113487;28;20043;-95
2022/03/18 08:24:09;;;;;;;8.95;3.50;;;;;;;20.24;17.49;103677.59;5096001;28;20046;-93
2022/03/18 08:26:37;;;;;;;15.57;4.18;;;;;;;20.46;17.32;103681.06;5116550;28;20491;-93
2022/03/18 08:29:07;;;;;;;10.77;3.40;;;;;;;20.70;17.46;103679.47;5116041;28;20036;-93
2022/03/18 08:31:33;;;;;;;7.70;3.33;;;;;;;20.92;16.94;103687.59;5081858;28;20040;-93
2022/03/18 08:33:59;;;;;;;12.57;4.03;;;;;;;20.97;16.49;103681.16;5093456;28;20094;-93
2022/03/18 08:36:25;;;;;;;11.40;3.87;;;;;;;20.87;17.20;103679.22;5093310;28;20126;-92
2022/03/18 08:38:51;;;;;;;6.35;3.33;;;;;;;20.92;16.59;103682.00;5094390;28;20067;-94
2022/03/18 08:41:16;;;;;;;6.38;3.00;;;;;;;20.75;16.73;103682.25;5099547;28;20097;-93
2022/03/18 08:43:42;;;;;;;7.45;3.47;;;;;;;20.26;17.11;103679.00;5101749;27;20131;-92
2022/03/18 08:46:07;;;;;;;10.70;3.83;;;;;;;20.12;17.16;103672.25;5099558;28;20151;-92
2022/03/18 08:48:33;;;;;;;6.15;3.22;;;;;;;19.95;17.15;103666.88;5114660;28;20066;-92
2022/03/18 08:50:59;;;;;;;8.93;3.47;;;;;;;19.76;17.58;103674.03;5113704;28;20076;-92
2022/03/18 08:53:24;;;;;;;8.35;5.22;;;;;;;19.69;17.58;103670.66;5112951;28;20039;-93
2022/03/18 08:55:50;;;;;;;14.35;3.63;;;;;;;19.60;17.62;103675.88;5112744;28;20046;-92
2022/03/18 08:58:16;;;;;;;12.05;4.57;;;;;;;19.49;17.45;103662.97;5095332;28;20067;-91
2022/03/18 09:00:41;;;;;;;7.55;3.58;;;;;;;19.21;17.72;103664.16;5112167;28;20457;-87
2022/03/18 09:03:07;;;;;;;7.80;3.40;;;;;;;19.19;17.80;103664.41;5094334;28;20063;-87
2022/03/18 09:05:33;;;;;;;11.90;3.40;;;;;;;18.80;18.07;103661.00;5080741;28;20074;-87
2022/03/18 09:07:58;;;;;;;11.90;4.10;;;;;;;18.81;18.20;103659.91;5073918;28;20466;-87
2022/03/18 09:10:24;;;;;;;9.25;3.25;;;;;;;18.87;18.25;103672.75;5091692;28;20503;-87
2022/03/18 09:12:56;;;;;;;10.63;3.40;;;;;;;18.20;18.42;103661.97;5092112;28;20044;-87
2022/03/18 09:15:22;;;;;;;7.75;2.97;;;;;;;16.87;19.23;103663.84;5103410;28;20502;-85
2022/03/18 09:17:47;;;;;;;4.50;2.72;;;;;;;14.94;20.20;103665.06;5111994;28;20050;-86
2022/03/18 09:20:13;;;;;;;10.00;2.75;;;;;;;13.95;21.79;103669.97;5118193;28;20073;-85
2022/03/18 09:22:39;;;;;;;11.70;2.90;;;;;;;12.78;22.29;103671.63;5131425;28;20420;-86
2022/03/18 09:25:06;;;;;;;7.20;2.80;;;;;;;12.14;23.73;103667.09;5113031;28;20043;-86
2022/03/18 09:27:32;;;;;;;9.85;2.72;;;;;;;11.78;23.67;103675.84;5089873;28;20126;-87
2022/03/18 09:29:59;;;;;;;6.53;3.03;;;;;;;11.38;24.05;103669.56;5103196;28;20043;-87
2022/03/18 09:32:28;;;;;;;4.80;2.35;;;;;;;10.99;24.92;103663.03;5110750;28;20035;-84
2022/03/18 09:34:57;;;;;;;6.70;2.60;;;;;;;10.69;25.30;103658.94;5085605;28;20043;-86
2022/03/18 09:37:23;;;;;;;6.10;3.13;;;;;;;10.40;26.06;103660.13;5115100;28;20449;-86
2022/03/18 09:39:49;;;;;;;6.07;2.63;;;;;;;10.26;26.21;103662.84;5132685;28;20503;-86
2022/03/18 09:42:15;;;;;;;6.47;2.75;;;;;;;10.00;26.46;103654.47;5131912;28;20035;-85
2022/03/18 09:44:41;;;;;;;8.48;3.25;;;;;;;9.71;26.79;103672.00;5070929;28;20039;-87
2022/03/18 09:47:08;;;;;;;6.20;3.00;;;;;;;9.26;26.78;103668.75;5085762;28;20058;-86
2022/03/18 09:49:34;;;;;;;6.63;2.70;;;;;;;9.12;27.15;103666.94;5126296;28;20497;-85
2022/03/18 09:52:00;;;;;;;5.32;2.83;;;;;;;9.10;27.49;103669.03;5108253;28;20046;-85
2022/03/18 09:54:28;;;;;;;6.05;2.50;;;;;;;9.09;27.34;103670.06;5124487;27;20096;-86
2022/03/18 09:56:54;;;;;;;4.65;2.55;;;;;;;8.71;28.09;103669.50;5098326;28;20044;-86
2022/03/18 09:59:22;;;;;;;4.45;2.50;;;;;;;8.80;27.67;103671.06;5123465;27;20050;-86
2022/03/18 10:01:48;;;;;;;5.67;2.43;;;;;;;8.85;28.45;103670.47;5083156;28;20108;-86
2022/03/18 10:04:14;;;;;;;5.40;2.63;;;;;;;8.88;28.19;103668.19;5084677;28;20293;-86
2022/03/18 10:06:44;;;;;;;7.75;2.90;;;;;;;8.77;27.98;103665.97;5078228;28;20035;-85
2022/03/18 10:09:16;;;;;;;5.85;2.70;;;;;;;8.53;28.14;103672.69;5101737;28;20034;-84
2022/03/18 10:11:46;;;;;;;9.38;2.80;;;;;;;8.46;28.22;103661.63;5089321;28;20051;-86
2022/03/18 10:14:18;;;;;;;5.90;2.85;;;;;;;8.51;28.28;103660.22;5077097;28;20038;-87
2022/03/18 10:16:48;;;;;;;8.98;3.50;;;;;;;8.43;29.36;103655.72;5096882;28;20444;-85
2022/03/18 10:19:15;;;;;;;6.88;3.00;;;;;;;8.18;28.78;103655.19;5080076;28;20429;-86
2022/03/18 10:21:58;;;;;;;4.88;3.22;;;;;;;8.01;28.93;103661.91;5099112;28;20048;-86
2022/03/18 10:24:27;;;;;;;3.92;2.80;;;;;;;8.00;28.99;103650.13;5132473;27;20050;-81
2022/03/18 10:27:17;;;;;;;6.22;2.72;;;;;;;7.91;28.48;103653.97;5109223;27;20031;-79
2022/03/18 10:29:53;;;;;;;6.80;2.63;;;;;;;7.80;29.04;103641.63;5101539;27;20027;-79
2022/03/18 10:32:21;;;;;;;3.33;2.40;;;;;;;7.38;30.12;103642.28;5087129;28;20126;-79
2022/03/18 10:37:47;;;;;;;3.80;2.58;;;;;;;7.33;29.62;103647.47;5133270;27;20496;-84
2022/03/18 10:40:14;;;;;;;5.35;2.80;;;;;;;7.19;30.34;103638.19;5108335;27;20036;-82
2022/03/18 10:42:40;;;;;;;6.07;2.67;;;;;;;7.39;29.69;103646.69;5116163;27;20035;-84
2022/03/18 10:45:08;;;;;;;8.65;2.60;;;;;;;7.43;30.17;103642.56;5128759;27;20430;-82
2022/03/18 10:47:35;;;;;;;6.03;2.30;;;;;;;7.46;29.92;103642.22;5083011;28;20048;-84
2022/03/18 10:50:10;;;;;;;8.07;2.63;;;;;;;7.50;30.17;103645.41;5076505;28;20032;-83
2022/03/18 10:52:39;;;;;;;5.53;2.38;;;;;;;7.33;29.96;103638.41;5075971;28;20043;-81
2022/03/18 10:55:21;;;;;;;4.97;2.30;;;;;;;7.37;29.65;103643.31;5075603;28;20491;-81
2022/03/18 10:57:59;;;;;;;8.05;2.78;;;;;;;7.40;29.50;103634.72;5091931;28;20040;-81
2022/03/18 11:00:26;;;;;;;6.40;2.42;;;;;;;7.35;29.83;103626.25;5113823;28;20077;-82
2022/03/18 11:02:53;;;;;;;5.53;2.67;;;;;;;7.22;29.78;103624.16;5078727;28;20050;-83
2022/03/18 11:05:20;;;;;;;5.03;2.58;;;;;;;7.19;29.93;103634.63;5094219;28;20047;-87
2022/03/18 11:07:51;;;;;;;4.68;2.50;;;;;;;7.14;30.13;103634.34;5091657;28;20413;-84
2022/03/18 11:13:04;;;;;;;3.95;2.30;;;;;;;6.92;30.14;103623.25;5097804;28;20031;-82
2022/03/18 11:15:31;;;;;;;3.60;2.28;;;;;;;6.88;29.92;103610.16;5088049;28;20062;-86
2022/03/18 11:17:57;;;;;;;3.63;2.50;;;;;;;6.84;30.31;103614.28;5093440;28;20215;-84
2022/03/18 11:20:26;;;;;;;6.80;2.75;;;;;;;6.87;30.48;103614.75;5094260;28;20028;-87
2022/03/18 11:22:51;;;;;;;6.30;2.30;;;;;;;6.99;30.07;103609.72;5093480;28;20044;-87
2022/03/18 11:25:17;;;;;;;5.28;1.83;;;;;;;7.11;29.99;103605.50;5058827;28;20055;-84
2022/03/18 11:27:44;;;;;;;4.03;2.00;;;;;;;7.11;30.05;103596.44;5062509;28;20043;-84
2022/03/18 11:30:21;;;;;;;3.58;1.95;;;;;;;7.09;29.68;103593.06;5092949;28;20035;-86
2022/03/18 11:33:05;;;;;;;4.72;2.20;;;;;;;7.05;29.84;103586.28;5082365;28;20038;-84
2022/03/18 11:36:05;;;;;;;6.28;2.28;;;;;;;6.97;30.28;103586.38;5097407;28;20043;-84
2022/03/18 11:38:55;;;;;;;3.47;2.30;;;;;;;7.01;30.44;103587.69;5076025;27;20422;-85
2022/03/18 11:41:27;;;;;;;4.13;1.88;;;;;;;7.15;30.66;103595.06;5078577;28;20080;-84
2022/03/18 11:43:54;;;;;;;3.90;1.95;;;;;;;7.18;29.44;103592.81;5073877;28;20036;-84
2022/03/18 11:46:23;;;;;;;3.00;2.00;;;;;;;7.25;29.79;103591.00;5092461;28;20036;-84